Terminal Aerodrome Forecast
Issued by NWS

Home | Current Version | Previous Version | Text Only | Print | Product List | Glossary On
Versions: 1 2 3 4 5 6 7 8 9 10 11 12 13 14 15 16 17 18 19 20 21 22
000
FTUS41 KBUF 050303 AAA
TAFIAG
TAF AMD
KIAG 050303Z 0503/0524 19003KT P6SM SCT090 BKN150
     FM050600 VRB03KT P6SM OVC045
     FM050800 00000KT P6SM OVC120
     FM051500 06008KT P6SM BKN120
     FM052300 05005KT P6SM BKN110=

USA.gov is the U.S. government's official web portal to all federal, state and local government web resources and services.